This is the latest recevied weather packets stored in our database for station/object DK2OO-6. If no packets are shown the sender has not sent any weather packets the latest 10 day(s).
| Time | Temp. | Humidity | Pressure | Rain* | Wind** | Luminosity | Snow |
|---|---|---|---|---|---|---|---|
| 1788513020 | 23.33° C | 62% | 1013.1 hPa | 0 mm | - | - | - |
| 1788508800 | 18.33° C | 72% | 1013.8 hPa | 0 mm | - | - | - |
| 1788506987 | 17.78° C | 73% | 1014.1 hPa | 0 mm | - | - | - |
| 1788505767 | 17.22° C | 76% | 1014.3 hPa | 0 mm | - | - | - |
| 1788505167 | 16.11° C | 77% | 1014.2 hPa | 0 mm | - | - | - |
| 1788504568 | 15° C | 78% | 1014.2 hPa | 0 mm | - | - | - |
| 1788502754 | 13.89° C | 77% | 1014.3 hPa | 0 mm | - | - | - |
| 1788501546 | 13.89° C | 77% | 1014.4 hPa | 0 mm | - | - | - |
| 1788500945 | 13.89° C | 76% | 1014.2 hPa | 0 mm | - | - | - |
| 1788499123 | 13.33° C | 77% | 1014.2 hPa | 0 mm | - | - | - |
| 1788497914 | 13.33° C | 76% | 1014.4 hPa | 0 mm | - | - | - |
| 1788497314 | 13.89° C | 76% | 1014.3 hPa | 0 mm | - | - | - |
| 1788496710 | 13.89° C | 76% | 1014.4 hPa | 0 mm | - | - | - |
| 1788494295 | 13.89° C | 75% | 1014.6 hPa | 0 mm | - | - | - |
| 1788490666 | 13.89° C | 73% | 1015.1 hPa | 0 mm | - | - | - |
| 1788488860 | 14.44° C | 72% | 1015.2 hPa | 0 mm | - | - | - |
| 1788485243 | 14.44° C | 71% | 1015.2 hPa | 0 mm | - | - | - |
| 1788484633 | 15° C | 70% | 1015.2 hPa | 0 mm | - | - | - |
| 1788484031 | 15° C | 70% | 1015.3 hPa | 0 mm | - | - | - |
| 1788483432 | 15° C | 69% | 1015.3 hPa | 0 mm | - | - | - |
| 1788482832 | 15.56° C | 69% | 1015.2 hPa | 0 mm | - | - | - |
| 1788481015 | 15.56° C | 68% | 1015.4 hPa | 0 mm | - | - | - |
| 1788480411 | 16.11° C | 67% | 1015.4 hPa | 0 mm | - | - | - |
| 1788479803 | 16.11° C | 67% | 1015.4 hPa | 0 mm | - | - | - |
| 1788478596 | 16.11° C | 67% | 1015.7 hPa | 0 mm | - | - | - |
* Rain latest hour (hover to see other rain measurements)
** Current wind speed in m/s (hover to see current wind gust speed)